createdAt,value
2018-11-21T00:02:42.558Z,8.90
2018-11-21T00:06:53.790Z,7.70
2018-11-21T00:11:04.870Z,8.07
2018-11-21T00:15:16.083Z,8.27
2018-11-21T00:19:27.273Z,8.10
2018-11-21T00:23:38.213Z,7.70
2018-11-21T00:27:50.338Z,7.70
2018-11-21T00:32:01.320Z,7.20
2018-11-21T00:36:12.268Z,6.67
2018-11-21T00:40:23.317Z,7.50
2018-11-21T00:44:34.499Z,8.00
2018-11-21T00:48:45.519Z,7.57
2018-11-21T00:52:56.442Z,7.87
2018-11-21T00:57:07.888Z,7.20
2018-11-21T01:01:18.977Z,7.27
2018-11-21T01:05:29.901Z,7.50
2018-11-21T01:09:41.027Z,6.40
2018-11-21T01:13:52.150Z,6.53
2018-11-21T01:18:05.060Z,6.30
2018-11-21T01:22:16.327Z,5.60
2018-11-21T01:26:27.424Z,6.00
2018-11-21T01:30:39.534Z,5.43
2018-11-21T01:34:50.515Z,6.93
2018-11-21T01:39:02.516Z,6.77
2018-11-21T01:43:13.351Z,8.87
2018-11-21T01:47:24.313Z,9.97
2018-11-21T01:51:35.121Z,8.50
2018-11-21T01:55:45.992Z,9.23
2018-11-21T01:59:57.320Z,9.63
2018-11-21T02:04:08.402Z,9.00
2018-11-21T02:08:19.528Z,8.57
2018-11-21T02:12:30.332Z,9.23
2018-11-21T02:16:42.338Z,9.33
2018-11-21T02:20:53.324Z,9.70
2018-11-21T02:25:04.646Z,8.33
2018-11-21T02:29:16.955Z,9.87
2018-11-21T02:33:27.957Z,8.23
2018-11-21T02:37:39.030Z,8.53
2018-11-21T02:41:50.070Z,8.33
2018-11-21T02:46:01.225Z,8.07
2018-11-21T02:50:12.347Z,8.33
2018-11-21T02:54:23.384Z,9.17
2018-11-21T02:58:35.480Z,8.03
2018-11-21T03:02:46.459Z,8.07
2018-11-21T03:06:57.475Z,7.47
2018-11-21T03:11:08.541Z,6.03
2018-11-21T03:15:19.620Z,6.20
2018-11-21T03:19:30.813Z,5.77
2018-11-21T03:23:41.952Z,5.57
2018-11-21T03:27:52.904Z,7.23
2018-11-21T03:32:04.143Z,6.30
2018-11-21T03:36:16.347Z,6.83
2018-11-21T03:40:27.348Z,7.33
2018-11-21T03:44:38.338Z,7.77
2018-11-21T03:48:49.314Z,10.43
2018-11-21T03:53:00.312Z,11.00
2018-11-21T03:57:11.573Z,9.80
2018-11-21T04:01:22.604Z,10.43
2018-11-21T04:05:33.542Z,8.10
2018-11-21T04:09:44.844Z,8.87
2018-11-21T04:13:56.069Z,10.50
2018-11-21T04:18:07.504Z,10.17
2018-11-21T04:22:18.354Z,9.40
2018-11-21T04:26:29.636Z,9.97
2018-11-21T04:30:40.763Z,11.27
2018-11-21T04:34:51.745Z,13.30
2018-11-21T04:39:04.572Z,12.20
2018-11-21T04:43:15.764Z,11.00
2018-11-21T04:47:26.853Z,11.03
2018-11-21T04:51:37.829Z,12.03
2018-11-21T04:55:48.933Z,12.93
2018-11-21T05:00:00.291Z,12.13
2018-11-21T05:04:11.185Z,11.87
2018-11-21T05:08:23.188Z,11.73
2018-11-21T05:12:34.593Z,11.20
2018-11-21T05:16:45.858Z,12.70
2018-11-21T05:20:56.950Z,12.80
2018-11-21T05:25:08.669Z,11.77
2018-11-21T05:29:19.811Z,11.87
2018-11-21T05:33:30.726Z,13.87
2018-11-21T05:37:41.654Z,15.70
2018-11-21T05:41:52.524Z,17.27
2018-11-21T05:46:03.860Z,16.60
2018-11-21T05:50:14.908Z,16.63
2018-11-21T05:54:25.940Z,15.10
2018-11-21T05:58:37.060Z,16.17
2018-11-21T06:02:48.010Z,14.27
2018-11-21T06:06:59.176Z,14.83
2018-11-21T06:11:10.658Z,13.00
2018-11-21T06:15:22.218Z,13.53
2018-11-21T06:19:33.336Z,14.57
2018-11-21T06:23:44.096Z,13.53
2018-11-21T06:27:55.420Z,13.03
2018-11-21T06:32:07.799Z,11.47
2018-11-21T06:36:18.830Z,10.47
2018-11-21T06:40:29.810Z,10.00
2018-11-21T06:44:40.746Z,12.13
2018-11-21T06:48:52.009Z,13.13
2018-11-21T06:53:03.065Z,11.77
2018-11-21T06:57:14.152Z,13.20
2018-11-21T07:01:25.078Z,13.60
2018-11-21T07:05:36.037Z,14.83
2018-11-21T07:09:46.941Z,14.77
2018-11-21T07:13:58.120Z,12.53
2018-11-21T07:18:10.425Z,10.53
2018-11-21T07:22:21.565Z,10.43
2018-11-21T07:26:33.672Z,10.80
2018-11-21T07:30:45.777Z,11.97
2018-11-21T07:34:57.214Z,12.70
2018-11-21T07:39:10.189Z,12.77
2018-11-21T07:43:21.085Z,10.60
2018-11-21T07:47:32.060Z,10.10
2018-11-21T07:51:43.356Z,12.00
2018-11-21T07:55:55.467Z,13.97
2018-11-21T08:01:02.421Z,14.17
2018-11-21T08:05:18.676Z,13.57
2018-11-21T08:10:00.605Z,13.47
2018-11-21T08:14:42.923Z,15.90
2018-11-21T08:19:10.308Z,16.77
2018-11-21T08:23:38.631Z,19.47
2018-11-21T08:28:07.067Z,20.03
2018-11-21T08:32:17.967Z,19.40
2018-11-21T08:36:29.156Z,23.20
2018-11-21T08:40:41.401Z,23.87
2018-11-21T08:44:52.405Z,25.37
2018-11-21T08:49:03.485Z,25.60
2018-11-21T08:53:14.416Z,25.50
2018-11-21T08:57:25.693Z,28.93
2018-11-21T09:01:36.791Z,26.10
2018-11-21T09:05:47.899Z,26.93
2018-11-21T09:09:58.844Z,24.63
2018-11-21T09:14:09.917Z,25.80
2018-11-21T09:18:21.109Z,24.63
2018-11-21T09:22:33.957Z,23.60
2018-11-21T09:26:44.959Z,24.10
2018-11-21T09:30:56.052Z,22.83
2018-11-21T09:35:08.300Z,24.10
2018-11-21T09:39:19.432Z,22.50
2018-11-21T09:43:30.308Z,22.63
2018-11-21T09:47:41.515Z,23.47
2018-11-21T09:51:52.517Z,23.87
2018-11-21T09:56:03.600Z,24.97
2018-11-21T10:00:51.525Z,23.60
2018-11-21T10:05:02.428Z,24.40
2018-11-21T10:09:16.200Z,23.13
2018-11-21T10:13:27.419Z,23.20
2018-11-21T10:17:38.445Z,24.27
2018-11-21T10:21:49.534Z,25.23
2018-11-21T10:26:01.482Z,24.30
2018-11-21T10:30:12.606Z,26.30
2018-11-21T10:34:23.628Z,23.73
2018-11-21T10:38:34.612Z,22.67
2018-11-21T10:42:45.572Z,23.17
2018-11-21T10:46:56.560Z,23.03
2018-11-21T10:51:08.085Z,24.93
2018-11-21T10:55:22.319Z,23.53
2018-11-21T10:59:33.237Z,21.60
2018-11-21T11:05:08.559Z,22.30
2018-11-21T11:09:38.800Z,20.93
2018-11-21T11:14:22.358Z,17.53
2018-11-21T11:19:00.669Z,15.17
2018-11-21T11:23:27.595Z,5.20
2018-11-21T11:27:57.654Z,1.93
2018-11-21T11:32:41.095Z,2.10
2018-11-21T11:37:11.021Z,1.97
2018-11-21T11:41:41.664Z,2.20
2018-11-21T11:46:19.066Z,1.87
2018-11-21T11:51:05.375Z,2.23
2018-11-21T11:55:42.776Z,2.10
2018-11-21T12:00:17.002Z,2.10
2018-11-21T12:04:48.257Z,1.77
2018-11-21T12:09:19.721Z,2.17
2018-11-21T12:13:51.285Z,1.80
2018-11-21T12:18:28.607Z,2.17
2018-11-21T12:23:06.303Z,2.07
2018-11-21T12:27:37.657Z,2.37
2018-11-21T12:32:18.329Z,2.63
2018-11-21T12:36:55.151Z,8.37
2018-11-21T12:41:35.280Z,3.03
2018-11-21T12:45:56.754Z,1.70
2018-11-21T12:50:32.470Z,2.00
2018-11-21T12:55:03.731Z,1.97
2018-11-21T12:59:37.956Z,5.47
2018-11-21T13:04:08.392Z,3.40
2018-11-21T13:08:39.958Z,5.47
2018-11-21T13:13:08.874Z,7.97
2018-11-21T13:17:40.425Z,8.17
2018-11-21T13:22:11.780Z,12.27
2018-11-21T13:26:42.117Z,10.60
2018-11-21T13:31:12.248Z,3.13
2018-11-21T13:35:42.288Z,2.63
2018-11-21T13:40:13.328Z,5.10
2018-11-21T13:44:49.781Z,3.53
2018-11-21T13:49:20.449Z,6.50
2018-11-21T13:53:51.604Z,3.37
2018-11-21T13:58:04.665Z,6.47
2018-11-21T14:02:17.851Z,10.73
2018-11-21T14:06:30.815Z,5.70
2018-11-21T14:10:43.760Z,12.43
2018-11-21T14:14:56.483Z,5.00
2018-11-21T14:19:09.604Z,4.20
2018-11-21T14:23:22.755Z,3.97
2018-11-21T14:27:35.545Z,4.13
2018-11-21T14:31:49.080Z,4.37
2018-11-21T14:36:02.518Z,4.17
2018-11-21T14:40:17.844Z,4.10
2018-11-21T14:44:30.849Z,3.90
2018-11-21T14:48:45.087Z,4.20
2018-11-21T14:52:58.290Z,3.77
2018-11-21T14:57:11.329Z,4.33
2018-11-21T15:01:24.083Z,4.10
2018-11-21T15:05:37.092Z,4.87
2018-11-21T15:09:49.961Z,4.70
2018-11-21T15:14:02.994Z,5.40
2018-11-21T15:18:16.842Z,5.23
2018-11-21T15:22:30.030Z,5.30
2018-11-21T15:26:44.089Z,5.17
2018-11-21T15:30:57.122Z,4.47
2018-11-21T15:35:09.904Z,4.57
2018-11-21T15:39:22.923Z,4.30
2018-11-21T15:43:35.620Z,4.47
2018-11-21T15:47:51.461Z,4.83
2018-11-21T15:52:04.236Z,4.60
2018-11-21T15:56:17.394Z,4.77
2018-11-21T16:00:31.658Z,5.00
2018-11-21T16:04:48.087Z,5.63
2018-11-21T16:08:58.108Z,6.50
2018-11-21T16:13:10.964Z,10.07
2018-11-21T16:17:24.351Z,8.87
2018-11-21T16:21:37.411Z,9.30
2018-11-21T16:25:50.215Z,8.27
2018-11-21T16:30:03.240Z,9.57
2018-11-21T16:34:15.879Z,8.53
2018-11-21T16:38:28.966Z,8.40
2018-11-21T16:42:42.102Z,6.33
2018-11-21T16:46:56.094Z,6.10
2018-11-21T16:51:10.152Z,6.00
2018-11-21T16:55:24.390Z,6.13
2018-11-21T16:59:38.679Z,6.10
2018-11-21T17:03:54.886Z,5.90
2018-11-21T17:08:08.286Z,5.23
2018-11-21T17:12:22.567Z,6.63
2018-11-21T17:16:38.140Z,6.93
2018-11-21T17:20:55.683Z,7.77
2018-11-21T17:25:20.883Z,8.13
2018-11-21T17:29:59.456Z,8.50
2018-11-21T17:34:14.021Z,8.20
2018-11-21T17:38:51.173Z,8.57
2018-11-21T17:43:29.573Z,8.33
2018-11-21T17:47:48.682Z,8.17
2018-11-21T17:52:12.143Z,9.33
2018-11-21T17:56:38.747Z,11.50
2018-11-21T18:01:08.308Z,11.17
2018-11-21T18:05:44.385Z,12.23
2018-11-21T18:10:12.053Z,11.83
2018-11-21T18:14:31.574Z,13.30
2018-11-21T18:18:46.386Z,13.17
2018-11-21T18:23:00.228Z,13.47
2018-11-21T18:27:19.375Z,15.10
2018-11-21T18:31:34.255Z,15.20
2018-11-21T18:35:59.937Z,15.73
2018-11-21T18:40:24.704Z,15.43
2018-11-21T18:44:49.889Z,16.80
2018-11-21T18:49:09.531Z,16.27
2018-11-21T18:53:47.050Z,16.43
2018-11-21T18:58:49.578Z,18.03
2018-11-21T19:03:05.040Z,15.67
2018-11-21T19:07:27.563Z,16.90
2018-11-21T19:11:58.104Z,16.27
2018-11-21T19:16:21.604Z,14.97
2018-11-21T19:20:40.265Z,16.73
2018-11-21T19:25:09.557Z,16.60
2018-11-21T19:29:27.924Z,17.87
2018-11-21T19:33:42.092Z,17.10
2018-11-21T19:37:58.528Z,18.73
2018-11-21T19:42:25.164Z,19.60
2018-11-21T19:46:46.856Z,19.57
2018-11-21T19:51:14.326Z,19.50
2018-11-21T19:55:33.409Z,19.23
2018-11-21T20:00:11.617Z,19.50
2018-11-21T20:04:49.430Z,19.87
2018-11-21T20:09:11.596Z,19.77
2018-11-21T20:13:28.689Z,19.30
2018-11-21T20:18:07.287Z,19.93
2018-11-21T20:22:33.497Z,19.33
2018-11-21T20:27:00.598Z,20.53
2018-11-21T20:31:22.570Z,20.27
2018-11-21T20:35:59.814Z,19.60
2018-11-21T20:40:31.990Z,19.90
2018-11-21T20:45:00.860Z,20.97
2018-11-21T20:49:28.343Z,21.87
2018-11-21T20:53:54.296Z,21.27
2018-11-21T20:58:27.506Z,21.10
2018-11-21T21:02:48.328Z,20.73
2018-11-21T21:07:08.371Z,20.67
2018-11-21T21:11:42.703Z,23.47
2018-11-21T21:15:57.891Z,20.17
2018-11-21T21:20:21.231Z,18.80
2018-11-21T21:24:49.841Z,19.63
2018-11-21T21:29:17.552Z,20.27
2018-11-21T21:33:47.718Z,19.93
2018-11-21T21:38:09.119Z,20.43
2018-11-21T21:42:30.937Z,19.97
2018-11-21T21:46:49.021Z,19.10
2018-11-21T21:51:11.950Z,20.13
2018-11-21T21:55:27.085Z,21.17
2018-11-21T21:59:44.763Z,19.83
2018-11-21T22:04:04.262Z,19.93
2018-11-21T22:08:23.534Z,20.77
2018-11-21T22:12:37.567Z,19.97
2018-11-21T22:16:50.691Z,21.70
2018-11-21T22:21:03.501Z,20.90
2018-11-21T22:25:16.462Z,19.50
2018-11-21T22:29:29.616Z,20.47
2018-11-21T22:33:42.494Z,19.67
2018-11-21T22:37:56.322Z,19.70
2018-11-21T22:42:09.398Z,19.77
2018-11-21T22:46:22.470Z,20.37
2018-11-21T22:50:35.307Z,20.50
2018-11-21T22:54:48.273Z,21.30
2018-11-21T22:59:01.458Z,20.13
2018-11-21T23:03:15.339Z,18.70
2018-11-21T23:07:28.538Z,19.77
2018-11-21T23:11:41.387Z,18.70
2018-11-21T23:15:54.414Z,20.27
2018-11-21T23:20:08.263Z,22.20
2018-11-21T23:24:21.278Z,20.27
2018-11-21T23:28:34.060Z,21.23
2018-11-21T23:32:47.390Z,21.80
2018-11-21T23:37:00.470Z,22.57
2018-11-21T23:41:13.507Z,22.17
2018-11-21T23:45:26.496Z,22.50
2018-11-21T23:49:39.663Z,22.53
2018-11-21T23:53:52.437Z,23.10
2018-11-21T23:58:05.563Z,22.20
